createdAt,value
2018-11-03T00:00:52.353Z,24.07
2018-11-03T00:03:20.348Z,26.37
2018-11-03T00:05:48.356Z,24.60
2018-11-03T00:08:16.352Z,24.93
2018-11-03T00:10:44.330Z,25.10
2018-11-03T00:13:12.380Z,25.10
2018-11-03T00:15:40.392Z,20.20
2018-11-03T00:18:08.476Z,23.50
2018-11-03T00:20:36.601Z,23.00
2018-11-03T00:23:04.617Z,23.20
2018-11-03T00:25:32.594Z,23.13
2018-11-03T00:28:00.578Z,26.33
2018-11-03T00:30:28.593Z,26.23
2018-11-03T00:32:56.575Z,21.73
2018-11-03T00:35:24.559Z,24.20
2018-11-03T00:37:52.554Z,20.50
2018-11-03T00:40:20.594Z,23.23
2018-11-03T00:42:48.549Z,20.37
2018-11-03T00:45:16.498Z,22.50
2018-11-03T00:47:44.972Z,22.30
2018-11-03T00:50:14.183Z,22.40
2018-11-03T00:52:42.465Z,19.07
2018-11-03T00:55:11.137Z,20.20
2018-11-03T00:57:39.878Z,17.90
2018-11-03T01:00:10.364Z,17.73
2018-11-03T01:02:38.593Z,20.27
2018-11-03T01:05:06.776Z,23.40
2018-11-03T01:07:34.904Z,18.63
2018-11-03T01:10:02.909Z,27.43
2018-11-03T01:12:30.924Z,26.77
2018-11-03T01:14:58.905Z,33.80
2018-11-03T01:17:26.887Z,21.07
2018-11-03T01:19:54.908Z,22.13
2018-11-03T01:22:22.873Z,21.33
2018-11-03T01:24:50.865Z,19.40
2018-11-03T01:27:18.850Z,19.27
2018-11-03T01:29:46.828Z,21.83
2018-11-03T01:32:14.838Z,20.73
2018-11-03T01:34:42.826Z,18.70
2018-11-03T01:37:10.840Z,21.60
2018-11-03T01:39:38.836Z,20.73
2018-11-03T01:42:06.810Z,20.00
2018-11-03T01:44:34.798Z,21.30
2018-11-03T01:47:02.777Z,21.30
2018-11-03T01:49:30.773Z,21.90
2018-11-03T01:54:33.289Z,26.23
2018-11-03T01:57:01.271Z,17.90
2018-11-03T01:59:29.249Z,23.20
2018-11-03T02:01:57.237Z,23.47
2018-11-03T02:04:25.228Z,18.00
2018-11-03T02:06:53.193Z,20.37
2018-11-03T02:09:21.364Z,20.53
2018-11-03T02:11:49.348Z,18.33
2018-11-03T02:14:17.331Z,20.50
2018-11-03T02:16:45.305Z,21.50
2018-11-03T02:19:13.571Z,17.20
2018-11-03T02:21:41.588Z,22.00
2018-11-03T02:24:09.569Z,21.73
2018-11-03T02:26:37.550Z,19.53
2018-11-03T02:29:05.553Z,20.27
2018-11-03T02:31:33.513Z,20.93
2018-11-03T02:34:01.502Z,17.30
2018-11-03T02:36:29.525Z,22.33
2018-11-03T02:38:57.506Z,28.63
2018-11-03T02:41:25.528Z,23.53
2018-11-03T02:43:53.498Z,25.30
2018-11-03T02:46:21.489Z,22.93
2018-11-03T02:48:49.469Z,24.73
2018-11-03T02:51:17.496Z,24.73
2018-11-03T02:53:45.498Z,17.33
2018-11-03T02:56:13.494Z,24.43
2018-11-03T02:58:41.508Z,33.07
2018-11-03T03:01:09.488Z,19.30
2018-11-03T03:03:37.502Z,22.37
2018-11-03T03:06:05.480Z,22.20
2018-11-03T03:08:33.522Z,21.83
2018-11-03T03:11:01.514Z,20.60
2018-11-03T03:13:29.494Z,20.07
2018-11-03T03:15:57.477Z,20.50
2018-11-03T03:18:25.505Z,24.37
2018-11-03T03:20:53.506Z,22.03
2018-11-03T03:23:21.522Z,27.90
2018-11-03T03:25:49.537Z,23.20
2018-11-03T03:28:17.589Z,21.53
2018-11-03T03:30:45.581Z,22.40
2018-11-03T03:33:13.569Z,19.57
2018-11-03T03:35:41.570Z,20.77
2018-11-03T03:38:09.570Z,19.60
2018-11-03T03:40:37.554Z,18.17
2018-11-03T03:43:05.560Z,22.13
2018-11-03T03:45:33.560Z,20.57
2018-11-03T03:48:01.535Z,19.90
2018-11-03T03:50:29.525Z,28.10
2018-11-03T03:52:57.498Z,22.27
2018-11-03T03:55:25.484Z,23.30
2018-11-03T03:57:53.469Z,19.00
2018-11-03T04:00:21.450Z,21.40
2018-11-03T04:02:49.459Z,18.63
2018-11-03T04:05:17.469Z,25.80
2018-11-03T04:07:45.449Z,22.47
2018-11-03T04:10:13.458Z,25.50
2018-11-03T04:12:41.463Z,21.37
2018-11-03T04:15:09.455Z,21.00
2018-11-03T04:17:37.481Z,24.90
2018-11-03T04:20:05.983Z,24.90
2018-11-03T04:22:33.964Z,19.40
2018-11-03T04:25:01.951Z,25.43
2018-11-03T04:27:29.941Z,23.33
2018-11-03T04:29:57.927Z,26.00
2018-11-03T04:32:25.902Z,24.67
2018-11-03T04:34:53.894Z,26.10
2018-11-03T04:37:22.038Z,25.33
2018-11-03T04:39:50.034Z,26.17
2018-11-03T04:42:18.034Z,26.53
2018-11-03T04:44:46.013Z,21.17
2018-11-03T04:47:14.026Z,22.67
2018-11-03T04:49:42.028Z,26.30
2018-11-03T04:52:10.015Z,22.87
2018-11-03T04:54:38.002Z,18.57
2018-11-03T04:57:06.018Z,21.17
2018-11-03T04:59:34.017Z,22.50
2018-11-03T05:02:02.008Z,18.83
2018-11-03T05:04:29.994Z,20.27
2018-11-03T05:06:57.992Z,18.57
2018-11-03T05:09:26.029Z,20.00
2018-11-03T05:11:54.062Z,15.10
2018-11-03T05:14:22.049Z,21.13
2018-11-03T05:16:50.042Z,19.17
2018-11-03T05:19:18.023Z,20.50
2018-11-03T05:21:46.031Z,20.40
2018-11-03T05:24:14.014Z,22.27
2018-11-03T05:26:42.002Z,27.57
2018-11-03T05:29:10.027Z,21.47
2018-11-03T05:31:38.037Z,21.27
2018-11-03T05:34:06.043Z,19.00
2018-11-03T05:36:34.055Z,20.23
2018-11-03T05:39:02.121Z,18.60
2018-11-03T05:41:30.060Z,17.67
2018-11-03T05:43:58.035Z,18.80
2018-11-03T05:46:26.101Z,17.30
2018-11-03T05:48:54.064Z,18.57
2018-11-03T05:51:22.081Z,19.03
2018-11-03T05:53:50.081Z,18.83
2018-11-03T05:56:18.107Z,18.97
2018-11-03T05:58:46.313Z,20.27
2018-11-03T06:01:14.278Z,16.97
2018-11-03T06:03:42.339Z,14.70
2018-11-03T06:06:10.332Z,16.27
2018-11-03T06:08:38.436Z,16.10
2018-11-03T06:11:06.519Z,22.30
2018-11-03T06:13:34.573Z,19.43
2018-11-03T06:16:02.577Z,14.17
2018-11-03T06:18:30.563Z,16.80
2018-11-03T06:20:58.590Z,14.73
2018-11-03T06:23:26.672Z,18.20
2018-11-03T06:25:54.578Z,17.40
2018-11-03T06:28:22.580Z,20.30
2018-11-03T06:30:50.559Z,15.37
2018-11-03T06:33:18.542Z,14.63
2018-11-03T06:35:46.531Z,18.77
2018-11-03T06:38:14.535Z,15.03
2018-11-03T06:40:42.527Z,14.47
2018-11-03T06:43:10.510Z,23.17
2018-11-03T06:45:38.501Z,22.00
2018-11-03T06:48:06.521Z,15.10
2018-11-03T06:50:34.503Z,16.77
2018-11-03T06:53:02.509Z,15.40
2018-11-03T06:55:30.505Z,13.67
2018-11-03T06:57:58.484Z,21.67
2018-11-03T07:00:26.482Z,15.10
2018-11-03T07:02:54.481Z,19.23
2018-11-03T07:05:22.514Z,21.97
2018-11-03T07:07:50.487Z,23.03
2018-11-03T07:10:18.473Z,15.17
2018-11-03T07:12:46.755Z,18.97
2018-11-03T07:15:14.495Z,15.17
2018-11-03T07:17:42.446Z,22.00
2018-11-03T07:20:11.664Z,15.17
2018-11-03T07:22:39.684Z,16.30
2018-11-03T07:25:08.019Z,17.13
2018-11-03T07:27:42.625Z,25.03
2018-11-03T07:30:11.642Z,11.90
2018-11-03T07:32:39.669Z,13.50
2018-11-03T07:35:07.978Z,19.73
2018-11-03T07:37:36.050Z,16.90
2018-11-03T07:40:04.530Z,15.57
2018-11-03T07:42:32.535Z,14.20
2018-11-03T07:45:00.549Z,12.20
2018-11-03T07:47:28.557Z,16.10
2018-11-03T07:49:56.558Z,13.23
2018-11-03T07:52:24.577Z,11.90
2018-11-03T07:54:52.676Z,12.70
2018-11-03T07:57:20.599Z,14.10
2018-11-03T07:59:48.886Z,15.30
2018-11-03T08:02:16.877Z,15.30
2018-11-03T08:04:44.962Z,11.90
2018-11-03T08:07:12.973Z,12.50
2018-11-03T08:09:41.195Z,15.90
2018-11-03T08:12:09.186Z,14.80
2018-11-03T08:14:38.502Z,13.37
2018-11-03T08:17:08.426Z,10.87
2018-11-03T08:19:38.320Z,15.27
2018-11-03T08:22:09.142Z,15.60
2018-11-03T08:24:40.999Z,14.47
2018-11-03T08:27:19.356Z,12.70
2018-11-03T08:29:51.326Z,12.40
2018-11-03T08:32:20.648Z,14.17
2018-11-03T08:34:49.407Z,14.50
2018-11-03T08:37:17.567Z,14.10
2018-11-03T08:39:49.537Z,15.67
2018-11-03T08:42:19.960Z,14.20
2018-11-03T08:45:13.976Z,12.00
2018-11-03T08:47:47.881Z,17.17
2018-11-03T08:55:58.565Z,13.47
2018-11-03T08:58:40.727Z,15.13
2018-11-03T09:01:10.085Z,13.73
2018-11-03T09:03:39.423Z,13.43
2018-11-03T09:06:07.694Z,14.50
2018-11-03T09:08:43.095Z,11.40
2018-11-03T09:11:11.666Z,15.20
2018-11-03T09:13:40.070Z,12.07
2018-11-03T09:16:08.865Z,13.30
2018-11-03T09:18:42.183Z,13.60
2018-11-03T09:21:14.603Z,13.17
2018-11-03T09:23:49.208Z,13.40
2018-11-03T09:26:19.778Z,12.80
2018-11-03T09:28:51.063Z,13.53
2018-11-03T09:31:21.728Z,15.03
2018-11-03T09:33:53.007Z,11.73
2018-11-03T09:36:23.255Z,17.90
2018-11-03T09:38:56.652Z,17.80
2018-11-03T09:41:28.536Z,16.40
2018-11-03T09:43:59.262Z,15.57
2018-11-03T09:46:38.426Z,14.83
2018-11-03T09:49:11.095Z,14.20
2018-11-03T09:51:42.821Z,16.97
2018-11-03T09:54:15.324Z,16.20
2018-11-03T09:56:45.932Z,15.00
2018-11-03T09:59:14.751Z,14.70
2018-11-03T10:01:46.171Z,15.07
2018-11-03T10:04:24.247Z,14.47
2018-11-03T10:07:04.546Z,11.83
2018-11-03T10:09:40.635Z,19.70
2018-11-03T10:12:10.348Z,20.73
2018-11-03T10:14:42.031Z,14.97
2018-11-03T10:17:29.198Z,15.90
2018-11-03T10:20:07.978Z,14.67
2018-11-03T10:22:40.048Z,16.03
2018-11-03T10:25:11.287Z,16.60
2018-11-03T10:27:40.734Z,15.13
2018-11-03T10:30:16.244Z,21.17
2018-11-03T10:32:46.044Z,19.10
2018-11-03T10:35:15.834Z,21.13
2018-11-03T10:37:44.941Z,16.83
2018-11-03T10:40:16.988Z,18.40
2018-11-03T10:42:46.627Z,19.33
2018-11-03T10:45:16.906Z,17.73
2018-11-03T10:47:47.064Z,17.40
2018-11-03T10:53:02.659Z,16.13
2018-11-03T10:55:31.326Z,21.57
2018-11-03T10:57:59.799Z,19.30
2018-11-03T11:00:34.117Z,19.67
2018-11-03T11:06:01.079Z,17.83
2018-11-03T11:08:36.167Z,17.20
2018-11-03T11:11:17.261Z,16.73
2018-11-03T11:16:29.656Z,17.83
2018-11-03T11:19:00.732Z,15.73
2018-11-03T11:21:30.144Z,16.77
2018-11-03T11:23:58.693Z,17.53
2018-11-03T11:26:29.420Z,17.03
2018-11-03T11:28:59.289Z,17.37
2018-11-03T11:31:30.957Z,19.90
2018-11-03T11:34:03.094Z,19.90
2018-11-03T11:36:33.380Z,22.00
2018-11-03T11:39:02.205Z,17.03
2018-11-03T11:41:33.256Z,18.63
2018-11-03T11:44:01.764Z,18.53
2018-11-03T11:46:29.887Z,19.50
2018-11-03T11:49:01.087Z,16.40
2018-11-03T11:51:29.239Z,16.43
2018-11-03T11:53:57.427Z,18.83
2018-11-03T11:56:31.525Z,19.33
2018-11-03T11:59:02.949Z,20.47
2018-11-03T12:01:31.007Z,23.03
2018-11-03T12:04:07.956Z,17.77
2018-11-03T12:06:41.713Z,23.37
2018-11-03T12:09:10.107Z,22.07
2018-11-03T12:11:38.124Z,20.90
2018-11-03T12:14:06.197Z,20.80
2018-11-03T12:16:34.701Z,21.70
2018-11-03T12:19:02.798Z,23.10
2018-11-03T12:21:34.859Z,26.77
2018-11-03T12:24:03.964Z,20.20
2018-11-03T12:26:33.475Z,25.43
2018-11-03T12:29:06.849Z,20.97
2018-11-03T12:31:34.891Z,18.27
2018-11-03T12:34:02.969Z,26.53
2018-11-03T12:36:30.974Z,21.00
2018-11-03T12:39:01.008Z,17.93
2018-11-03T12:41:29.689Z,22.40
2018-11-03T12:44:00.336Z,23.80
2018-11-03T12:46:28.594Z,21.80
2018-11-03T12:48:59.509Z,22.30
2018-11-03T12:51:30.181Z,23.20
2018-11-03T12:54:04.171Z,26.50
2018-11-03T12:56:33.630Z,22.93
2018-11-03T12:59:05.469Z,26.17
2018-11-03T13:01:34.227Z,23.57
2018-11-03T13:04:03.285Z,23.60
2018-11-03T13:06:31.536Z,24.37
2018-11-03T13:09:00.478Z,26.00
2018-11-03T13:11:28.563Z,27.40
2018-11-03T13:13:56.756Z,20.57
2018-11-03T13:16:24.971Z,23.27
2018-11-03T13:18:53.131Z,25.10
2018-11-03T13:21:21.246Z,18.50
2018-11-03T13:23:49.525Z,18.37
2018-11-03T13:26:17.956Z,23.30
2018-11-03T13:28:47.132Z,21.50
2018-11-03T13:31:15.588Z,25.80
2018-11-03T13:33:44.915Z,27.50
2018-11-03T13:36:12.996Z,22.67
2018-11-03T13:38:40.991Z,25.30
2018-11-03T13:41:09.035Z,20.30
2018-11-03T13:43:37.034Z,20.40
2018-11-03T13:46:05.136Z,18.20
2018-11-03T13:48:33.169Z,21.07
2018-11-03T13:51:01.213Z,17.90
2018-11-03T13:53:29.218Z,21.30
2018-11-03T13:55:57.254Z,18.47
2018-11-03T13:58:25.242Z,22.83
2018-11-03T14:00:53.282Z,22.23
2018-11-03T14:03:21.377Z,20.53
2018-11-03T14:05:49.398Z,17.10
2018-11-03T14:08:18.446Z,23.07
2018-11-03T14:10:46.475Z,14.47
2018-11-03T14:13:14.480Z,15.97
2018-11-03T14:15:42.619Z,19.33
2018-11-03T14:18:10.759Z,16.20
2018-11-03T14:20:38.774Z,21.13
2018-11-03T14:23:06.948Z,18.10
2018-11-03T14:25:34.950Z,20.67
2018-11-03T14:28:03.351Z,18.73
2018-11-03T14:30:31.524Z,17.60
2018-11-03T15:27:07.648Z,28.87
2018-11-03T15:29:35.864Z,27.13
2018-11-03T15:32:04.156Z,30.37
2018-11-03T15:34:32.425Z,27.52
2018-11-03T15:37:00.700Z,34.80
2018-11-03T15:39:28.886Z,29.25
2018-11-03T15:41:57.132Z,34.53
2018-11-03T15:44:25.335Z,35.25
2018-11-03T15:46:53.597Z,30.30
2018-11-03T15:49:21.814Z,30.20
2018-11-03T15:51:50.337Z,35.20
2018-11-03T15:54:18.540Z,33.67
2018-11-03T15:56:46.895Z,33.13
2018-11-03T15:59:15.155Z,34.80
2018-11-03T16:01:43.444Z,35.58
2018-11-03T16:04:11.707Z,35.58
2018-11-03T16:06:40.166Z,33.95
2018-11-03T16:09:09.852Z,35.60
2018-11-03T16:11:38.117Z,40.48
2018-11-03T16:14:06.436Z,40.05
2018-11-03T16:16:34.659Z,39.88
2018-11-03T16:19:02.888Z,40.70
2018-11-03T16:21:31.120Z,41.88
2018-11-03T16:23:59.354Z,41.18
2018-11-03T16:26:27.683Z,42.33
2018-11-03T16:28:55.980Z,43.85
2018-11-03T16:31:24.337Z,41.73
2018-11-03T16:33:52.571Z,44.75
2018-11-03T16:36:20.833Z,48.02
2018-11-03T16:38:49.066Z,44.75
2018-11-03T16:41:17.336Z,51.55
2018-11-03T16:43:45.571Z,45.30
2018-11-03T16:46:13.837Z,44.25
2018-11-03T16:48:42.055Z,45.80
2018-11-03T16:51:10.296Z,49.80
2018-11-03T16:53:38.527Z,45.30
2018-11-03T16:56:06.760Z,49.08
2018-11-03T16:58:35.067Z,46.50
2018-11-03T17:01:03.231Z,48.23
2018-11-03T17:03:31.449Z,45.98
2018-11-03T17:05:59.722Z,48.95
2018-11-03T17:08:34.480Z,44.88
2018-11-03T17:11:02.698Z,48.87
2018-11-03T17:13:30.973Z,47.73
2018-11-03T17:15:59.220Z,43.73
2018-11-03T17:18:27.592Z,45.28
2018-11-03T17:20:55.854Z,47.85
2018-11-03T17:23:24.165Z,47.30
2018-11-03T17:25:52.368Z,45.33
2018-11-03T17:28:20.615Z,45.85
2018-11-03T17:30:48.848Z,48.42
2018-11-03T17:33:17.107Z,47.65
2018-11-03T17:35:45.364Z,46.33
2018-11-03T17:38:13.613Z,43.92
2018-11-03T17:40:41.860Z,48.23
2018-11-03T17:43:10.169Z,48.52
2018-11-03T17:45:38.449Z,46.35
2018-11-03T17:48:06.673Z,48.30
2018-11-03T17:50:34.981Z,51.57
2018-11-03T17:53:03.280Z,48.42
2018-11-03T17:55:31.533Z,47.98
2018-11-03T17:57:59.830Z,53.08
2018-11-03T18:00:28.393Z,50.90
2018-11-03T18:02:56.945Z,48.93
2018-11-03T18:05:25.410Z,46.70
2018-11-03T18:07:53.748Z,45.75
2018-11-03T18:10:22.172Z,48.40
2018-11-03T18:12:50.504Z,46.45
2018-11-03T18:15:18.859Z,46.08
2018-11-03T18:17:47.286Z,47.25
2018-11-03T18:20:16.387Z,50.63
2018-11-03T18:22:44.663Z,45.67
2018-11-03T18:25:12.897Z,48.58
2018-11-03T18:27:41.357Z,47.03
2018-11-03T18:30:12.025Z,46.05
2018-11-03T18:32:40.749Z,48.23
2018-11-03T18:35:09.236Z,51.18
2018-11-03T18:37:37.623Z,43.28
2018-11-03T18:40:06.931Z,45.20
2018-11-03T18:42:35.616Z,42.15
2018-11-03T18:45:03.991Z,48.63
2018-11-03T18:47:32.223Z,43.85
2018-11-03T18:50:00.482Z,45.88
2018-11-03T18:52:28.870Z,45.05
2018-11-03T18:54:57.289Z,44.67
2018-11-03T18:57:25.813Z,45.95
2018-11-03T18:59:54.082Z,43.90
2018-11-03T19:02:22.695Z,44.65
2018-11-03T19:04:50.864Z,44.73
2018-11-03T19:07:19.159Z,44.95
2018-11-03T19:09:47.515Z,49.60
2018-11-03T19:12:15.763Z,46.68
2018-11-03T19:14:44.203Z,44.50
2018-11-03T19:17:13.357Z,44.23
2018-11-03T19:19:42.409Z,44.42
2018-11-03T19:22:10.643Z,45.07
2018-11-03T19:24:39.085Z,45.43
2018-11-03T19:27:07.555Z,44.73
2018-11-03T19:29:35.795Z,44.73
2018-11-03T19:32:04.090Z,43.20
2018-11-03T19:34:32.356Z,43.80
2018-11-03T19:37:00.981Z,44.53
2018-11-03T19:39:29.269Z,40.80
2018-11-03T19:41:57.747Z,38.30
2018-11-03T19:44:26.332Z,34.83
2018-11-03T19:46:54.566Z,37.67
2018-11-03T19:49:22.830Z,34.48
2018-11-03T19:51:51.117Z,36.60
2018-11-03T19:54:19.307Z,37.23
2018-11-03T19:56:47.519Z,35.03
2018-11-03T19:59:15.749Z,34.73
2018-11-03T20:01:44.178Z,33.45
2018-11-03T20:04:12.406Z,32.07
2018-11-03T20:06:40.651Z,28.87
2018-11-03T20:09:08.940Z,29.87
2018-11-03T20:11:37.189Z,27.35
2018-11-03T20:14:05.649Z,28.85
2018-11-03T20:16:33.776Z,26.52
2018-11-03T20:19:02.033Z,29.45
2018-11-03T20:21:30.263Z,28.20
2018-11-03T20:23:58.547Z,29.15
2018-11-03T20:26:26.767Z,33.18
2018-11-03T20:28:55.052Z,29.25
2018-11-03T20:31:23.284Z,31.73
2018-11-03T20:33:51.495Z,28.27
2018-11-03T20:36:19.764Z,27.42
2018-11-03T20:38:47.970Z,30.72
2018-11-03T20:41:16.155Z,29.72
2018-11-03T20:43:44.339Z,32.23
2018-11-03T20:46:12.540Z,30.80
2018-11-03T20:48:40.763Z,31.87
2018-11-03T20:51:10.626Z,35.65
2018-11-03T20:53:39.510Z,35.85
2018-11-03T20:56:07.980Z,32.38
2018-11-03T20:58:36.192Z,36.13
2018-11-03T21:01:04.828Z,35.90
2018-11-03T21:03:33.166Z,34.43
2018-11-03T21:06:01.474Z,35.73
2018-11-03T21:08:29.682Z,35.20
2018-11-03T21:10:57.976Z,36.25
2018-11-03T21:13:26.170Z,35.85
2018-11-03T21:15:54.367Z,30.75
2018-11-03T21:18:22.562Z,31.55
2018-11-03T21:20:50.778Z,29.55
2018-11-03T21:23:19.012Z,31.30
2018-11-03T21:25:47.214Z,32.00
2018-11-03T21:28:15.429Z,28.27
2018-11-03T21:30:43.634Z,29.57
2018-11-03T21:33:12.095Z,33.25
2018-11-03T21:35:40.073Z,34.27
2018-11-03T21:38:08.293Z,30.55
2018-11-03T21:40:36.487Z,30.00
2018-11-03T21:43:04.897Z,31.20
2018-11-03T21:45:33.070Z,32.85
2018-11-03T21:48:01.283Z,31.05
2018-11-03T21:50:29.455Z,37.55
2018-11-03T21:52:57.630Z,34.50
2018-11-03T21:55:25.822Z,34.63
2018-11-03T21:57:54.019Z,34.20
2018-11-03T22:00:22.228Z,36.77
2018-11-03T22:02:50.435Z,38.65
2018-11-03T22:05:18.619Z,38.83
2018-11-03T22:07:46.824Z,34.38
2018-11-03T22:10:15.016Z,32.65
2018-11-03T22:12:43.594Z,32.60
2018-11-03T22:15:11.806Z,34.45
2018-11-03T22:17:39.982Z,31.65
2018-11-03T22:20:09.559Z,34.23
2018-11-03T22:22:37.854Z,34.50
2018-11-03T22:25:06.668Z,38.10
2018-11-03T22:27:35.109Z,33.98
2018-11-03T22:30:03.298Z,35.35
2018-11-03T22:32:31.506Z,36.08
2018-11-03T22:34:59.710Z,33.73
2018-11-03T22:37:27.882Z,37.60
2018-11-03T22:39:56.087Z,36.53
2018-11-03T22:42:24.267Z,34.35
2018-11-03T22:44:52.494Z,31.73
2018-11-03T22:47:20.715Z,36.48
2018-11-03T22:49:49.044Z,36.00
2018-11-03T22:52:17.236Z,34.38
2018-11-03T22:54:45.420Z,37.33
2018-11-03T22:57:13.706Z,35.80
2018-11-03T22:59:41.991Z,35.75
2018-11-03T23:02:10.185Z,33.75
2018-11-03T23:04:38.432Z,35.55
2018-11-03T23:07:06.646Z,35.75
2018-11-03T23:09:34.843Z,38.95
2018-11-03T23:12:03.463Z,38.08
2018-11-03T23:14:31.675Z,44.13
2018-11-03T23:16:59.888Z,36.58
2018-11-03T23:19:28.115Z,38.08
2018-11-03T23:21:56.352Z,38.35
2018-11-03T23:24:24.535Z,36.80
2018-11-03T23:26:52.738Z,34.13
2018-11-03T23:29:20.991Z,39.38
2018-11-03T23:31:49.139Z,36.57
2018-11-03T23:34:17.339Z,36.75
2018-11-03T23:36:45.531Z,35.57
2018-11-03T23:39:13.754Z,37.33
2018-11-03T23:41:41.959Z,33.13
2018-11-03T23:44:10.564Z,32.98
2018-11-03T23:46:39.014Z,33.85
2018-11-03T23:49:07.375Z,35.10
2018-11-03T23:51:35.560Z,35.60
2018-11-03T23:54:03.764Z,33.70
2018-11-03T23:56:31.939Z,33.55
2018-11-03T23:59:00.157Z,33.90
